Time;durP1;ratioP1;P1;durP2;ratioP2;P2;SDS_P1;SDS_P2;PMS_P1;PMS_P2;Temp;Humidity;BMP_temperature;BMP_pressure;BME280_temperature;BME280_humidity;BME280_pressure;Samples;Min_cycle;Max_cycle;Signal;HPM_P1;HPM_P2
2023/01/17 00:02:02;;;;;;;0.40;0.40;;;;;;;2.23;100.00;96099.03;5029234;28;20053;-57
2023/01/17 00:10:06;;;;;;;1.88;1.30;;;;;;;1.45;100.00;95978.22;5044155;28;20651;-56
2023/01/17 00:12:33;;;;;;;5.25;1.45;;;;;;;2.19;100.00;96109.03;5059623;28;20053;-56
2023/01/17 00:15:00;;;;;;;0.40;0.40;;;;;;;2.15;100.00;96083.53;5059670;28;20122;-56
2023/01/17 00:17:28;;;;;;;0.40;0.40;;;;;;;2.22;100.00;96102.88;5035328;28;20045;-56
2023/01/17 01:35:52;;;;;;;0.30;0.30;;;;;;;1.56;100.00;96034.72;5047153;28;20057;-56
2023/01/17 01:38:22;;;;;;;1.67;1.60;;;;;;;1.58;100.00;96048.84;5040450;28;20199;-54
2023/01/17 01:40:54;;;;;;;1.45;1.20;;;;;;;0.88;100.00;95933.75;5025634;28;20122;-55
2023/01/17 01:43:41;;;;;;;6.83;6.43;;;;;;;1.60;100.00;96047.72;5027000;28;20064;-56
2023/01/17 01:46:12;;;;;;;0.40;0.40;;;;;;;1.71;100.00;96049.66;5014785;28;20069;-57
2023/01/17 01:48:45;;;;;;;17.73;13.27;;;;;;;1.71;100.00;96041.47;5046237;28;20088;-59
2023/01/17 01:51:18;;;;;;;1.20;0.68;;;;;;;1.69;100.00;96026.59;5045319;28;20519;-55
2023/01/17 01:53:48;;;;;;;0.95;0.95;;;;;;;1.18;100.00;95957.00;5046436;28;20103;-55
2023/01/17 01:56:15;;;;;;;1.80;1.70;;;;;;;1.43;100.00;95975.84;5045295;28;20110;-57
2023/01/17 01:58:45;;;;;;;0.30;0.30;;;;;;;1.29;100.00;95975.34;5046547;28;20080;-57
2023/01/17 02:01:13;;;;;;;10.45;5.47;;;;;;;1.94;100.00;96044.59;5046293;28;20048;-56
2023/01/17 02:03:41;;;;;;;0.40;0.40;;;;;;;1.92;100.00;96041.41;5045057;28;20057;-55
2023/01/17 02:06:23;;;;;;;27.98;2.67;;;;;;;1.97;100.00;96041.19;5046257;28;20127;-55
2023/01/17 02:08:50;;;;;;;1.85;1.75;;;;;;;2.14;100.00;96039.03;5045191;28;20200;-56
2023/01/17 02:11:17;;;;;;;1.75;0.98;;;;;;;2.12;100.00;96024.13;5046747;28;20130;-56
2023/01/17 02:13:44;;;;;;;1.85;1.40;;;;;;;2.19;100.00;96030.63;5045953;28;20570;-55
2023/01/17 02:16:19;;;;;;;0.40;0.40;;;;;;;2.31;100.00;96038.03;5045741;28;20041;-56
2023/01/17 02:19:09;;;;;;;1.95;1.30;;;;;;;2.42;100.00;96055.56;5062787;28;20505;-56
2023/01/17 02:21:36;;;;;;;10.98;0.98;;;;;;;2.30;100.00;96047.34;5065737;28;20154;-56
2023/01/17 02:24:42;;;;;;;9.43;1.38;;;;;;;2.34;100.00;96053.72;5065978;28;20144;-57
2023/01/17 02:27:47;;;;;;;0.40;0.40;;;;;;;2.35;100.00;96049.84;5045472;28;20115;-55
2023/01/17 02:30:25;;;;;;;0.73;0.73;;;;;;;2.48;100.00;96071.34;5045551;28;20088;-56
2023/01/17 02:33:02;;;;;;;0.50;0.50;;;;;;;2.43;100.00;96065.31;5044391;28;20495;-56
2023/01/17 02:35:44;;;;;;;0.30;0.30;;;;;;;1.98;100.00;95977.22;5046094;28;20060;-59
2023/01/17 02:38:20;;;;;;;0.40;0.40;;;;;;;2.60;100.00;96054.16;5044341;28;20561;-55
2023/01/17 02:40:52;;;;;;;0.40;0.40;;;;;;;2.61;100.00;96053.00;5046092;28;20052;-57
2023/01/17 02:43:21;;;;;;;0.65;0.65;;;;;;;2.06;100.00;95982.59;5045680;28;20481;-55
2023/01/17 02:45:47;;;;;;;0.38;0.38;;;;;;;2.26;100.00;95991.81;5046060;28;20091;-57
2023/01/17 02:48:19;;;;;;;0.40;0.40;;;;;;;2.73;100.00;96039.34;5045783;28;20309;-56
2023/01/17 02:51:07;;;;;;;0.45;0.45;;;;;;;2.91;100.00;96062.53;5045958;28;20591;-58
2023/01/17 02:53:37;;;;;;;0.50;0.50;;;;;;;3.08;100.00;96056.81;5045848;28;20080;-57
2023/01/17 02:56:09;;;;;;;0.40;0.40;;;;;;;3.07;100.00;96060.66;5045840;28;20045;-56
2023/01/17 02:59:05;;;;;;;0.50;0.50;;;;;;;3.12;100.00;96057.69;5044961;28;20059;-56
2023/01/17 03:01:44;;;;;;;0.47;0.47;;;;;;;3.07;100.00;96031.38;5044239;28;20052;-57
2023/01/17 03:04:33;;;;;;;3.30;3.00;;;;;;;2.90;100.00;96011.72;5045562;28;20060;-55
2023/01/17 03:07:06;;;;;;;0.40;0.40;;;;;;;2.92;100.00;95979.34;5043735;28;20110;-56
2023/01/17 03:09:33;;;;;;;0.40;0.40;;;;;;;2.78;100.00;95970.75;5045465;28;20494;-56
2023/01/17 03:12:00;;;;;;;1.85;0.82;;;;;;;2.85;100.00;95992.81;5045127;28;20052;-55
2023/01/17 03:14:29;;;;;;;0.80;0.80;;;;;;;2.77;100.00;95947.28;5044119;28;20048;-55
2023/01/17 03:16:56;;;;;;;0.80;0.80;;;;;;;2.91;100.00;95980.47;5065045;28;20135;-58
2023/01/17 03:19:23;;;;;;;7.15;4.80;;;;;;;2.87;100.00;95968.66;5064893;28;20052;-57
2023/01/17 03:21:49;;;;;;;1.15;1.05;;;;;;;2.93;100.00;95961.78;5064613;28;20112;-55
2023/01/17 03:24:16;;;;;;;0.98;0.90;;;;;;;2.80;100.00;95932.91;5064716;28;20049;-57
2023/01/17 03:26:43;;;;;;;1.10;1.10;;;;;;;3.18;100.00;95974.22;5064548;28;20087;-56
2023/01/17 03:29:10;;;;;;;3.25;1.25;;;;;;;3.23;100.00;95976.72;5064593;28;20106;-58
2023/01/17 03:31:37;;;;;;;6.45;2.85;;;;;;;2.59;100.00;95989.72;5064820;28;20052;-55
2023/01/17 03:34:03;;;;;;;2.33;1.25;;;;;;;2.05;100.00;95975.53;5064791;28;20558;-56
2023/01/17 03:36:30;;;;;;;2.22;2.03;;;;;;;2.06;100.00;95981.78;5063222;28;20135;-55
2023/01/17 03:38:57;;;;;;;1.92;1.45;;;;;;;1.98;100.00;95974.50;5063016;28;20479;-57
2023/01/17 03:41:23;;;;;;;0.38;0.38;;;;;;;2.24;100.00;95956.63;5064280;28;20057;-56
2023/01/17 03:43:50;;;;;;;0.40;0.40;;;;;;;2.31;100.00;95942.41;5064743;28;20049;-55
2023/01/17 03:46:23;;;;;;;0.35;0.35;;;;;;;2.58;100.00;95955.31;5064549;28;20056;-57
2023/01/17 03:48:50;;;;;;;1.15;1.15;;;;;;;2.71;100.00;95960.41;5064304;28;20523;-57
2023/01/17 03:51:17;;;;;;;1.80;1.65;;;;;;;2.70;100.00;95958.00;5064289;28;20395;-56
2023/01/17 03:53:45;;;;;;;0.40;0.40;;;;;;;2.46;100.00;95884.28;5064639;28;20060;-56
2023/01/17 03:56:12;;;;;;;0.40;0.40;;;;;;;2.89;100.00;95942.56;5064430;28;20045;-56
2023/01/17 03:58:39;;;;;;;0.50;0.50;;;;;;;2.63;100.00;95892.19;5064313;28;20053;-56
2023/01/17 04:01:06;;;;;;;1.25;1.25;;;;;;;2.79;100.00;95953.19;4836813;28;5002257;-56
2023/01/17 04:03:33;;;;;;;0.40;0.40;;;;;;;2.65;100.00;95884.47;5063840;28;20135;-57
2023/01/17 04:06:00;;;;;;;3.15;2.65;;;;;;;2.04;100.00;95803.88;5059557;28;20052;-56
2023/01/17 04:08:26;;;;;;;0.40;0.40;;;;;;;2.69;100.00;95879.88;5064341;28;20044;-56
2023/01/17 04:10:53;;;;;;;4.10;1.30;;;;;;;2.81;100.00;95893.50;5064080;28;20056;-55
2023/01/17 04:13:19;;;;;;;0.75;0.75;;;;;;;2.94;100.00;95903.25;5063902;28;20040;-56
2023/01/17 04:15:49;;;;;;;0.70;0.70;;;;;;;1.63;100.00;95695.03;5062638;28;20143;-55
2023/01/17 04:18:18;;;;;;;0.40;0.40;;;;;;;2.92;100.00;95900.06;5064496;28;20060;-56
2023/01/17 04:20:44;;;;;;;1.77;1.67;;;;;;;3.01;100.00;95908.88;5064388;28;20076;-56
2023/01/17 04:23:11;;;;;;;0.40;0.40;;;;;;;2.54;100.00;95828.69;5064237;28;20056;-57
2023/01/17 04:25:38;;;;;;;0.75;0.75;;;;;;;2.65;100.00;95874.31;5063007;28;20063;-56
2023/01/17 04:28:05;;;;;;;0.40;0.40;;;;;;;3.10;100.00;95912.25;5063049;28;20415;-56
2023/01/17 04:30:32;;;;;;;0.50;0.50;;;;;;;2.83;100.00;95877.53;5064236;28;20053;-56
2023/01/17 04:32:58;;;;;;;3.60;3.40;;;;;;;3.02;100.00;95894.06;5063934;28;20048;-56
2023/01/17 04:35:25;;;;;;;0.82;0.82;;;;;;;3.22;100.00;95920.41;5063684;28;20110;-56
2023/01/17 04:37:52;;;;;;;7.00;5.28;;;;;;;2.76;100.00;95850.00;5064308;28;20059;-56
2023/01/17 04:40:19;;;;;;;0.40;0.40;;;;;;;3.31;100.00;95937.47;5063741;28;20056;-58
2023/01/17 04:42:46;;;;;;;0.40;0.40;;;;;;;3.22;100.00;95898.53;5064025;28;20079;-57
2023/01/17 04:45:13;;;;;;;1.40;1.40;;;;;;;3.37;100.00;95916.88;5063519;28;20048;-58
2023/01/17 04:47:40;;;;;;;0.40;0.40;;;;;;;3.17;100.00;95874.16;5063937;28;20105;-57
2023/01/17 04:50:08;;;;;;;1.80;1.70;;;;;;;3.32;100.00;95895.25;5063441;28;20135;-57
2023/01/17 04:52:34;;;;;;;7.13;1.05;;;;;;;3.47;100.00;95905.44;5046351;28;20049;-57
2023/01/17 04:55:01;;;;;;;0.40;0.40;;;;;;;3.45;100.00;95904.97;5043955;28;20041;-56
2023/01/17 04:57:28;;;;;;;0.40;0.40;;;;;;;3.41;100.00;95911.50;5042416;28;20111;-56
2023/01/17 04:59:55;;;;;;;1.10;1.10;;;;;;;2.99;100.00;95845.53;5043529;28;20056;-57
2023/01/17 05:02:21;;;;;;;3.95;1.05;;;;;;;3.38;100.00;95904.81;5043128;28;20260;-57
2023/01/17 05:04:48;;;;;;;0.50;0.50;;;;;;;3.44;100.00;95919.81;5043472;28;20053;-58
2023/01/17 05:07:14;;;;;;;0.95;0.95;;;;;;;3.38;100.00;95907.56;5043591;28;20507;-57
2023/01/17 05:09:42;;;;;;;4.85;4.47;;;;;;;3.46;100.00;95930.41;5043152;28;20098;-58
2023/01/17 05:12:09;;;;;;;0.40;0.40;;;;;;;3.53;100.00;95914.16;5043540;28;20187;-56
2023/01/17 05:14:35;;;;;;;0.82;0.82;;;;;;;3.16;100.00;95850.69;5042398;28;20056;-57
2023/01/17 05:17:02;;;;;;;6.70;3.13;;;;;;;3.26;100.00;95915.81;5048035;28;20896;-56
2023/01/17 05:19:29;;;;;;;0.40;0.40;;;;;;;3.22;100.00;95925.88;5062598;28;20052;-56
2023/01/17 05:22:02;;;;;;;31.33;28.88;;;;;;;2.67;100.00;95838.44;5063799;28;20052;-57
2023/01/17 05:24:30;;;;;;;0.40;0.40;;;;;;;3.12;100.00;95929.13;5065392;28;20052;-56
2023/01/17 05:27:01;;;;;;;0.40;0.40;;;;;;;3.11;100.00;95913.88;5050065;28;20112;-57
2023/01/17 05:29:29;;;;;;;4.88;3.42;;;;;;;3.31;100.00;95934.72;5045568;28;20516;-58
2023/01/17 05:31:56;;;;;;;0.40;0.40;;;;;;;2.93;100.00;95874.28;5046957;28;20148;-57
2023/01/17 05:34:23;;;;;;;0.40;0.40;;;;;;;3.16;100.00;95913.63;5047219;28;20080;-57
2023/01/17 05:36:49;;;;;;;0.40;0.40;;;;;;;3.38;100.00;95948.59;5046903;28;20049;-58
2023/01/17 05:39:16;;;;;;;0.40;0.40;;;;;;;3.44;100.00;95960.88;5046841;28;20148;-56
2023/01/17 05:41:43;;;;;;;0.45;0.45;;;;;;;3.03;100.00;95917.56;5046708;28;20056;-58
2023/01/17 05:44:10;;;;;;;1.77;1.05;;;;;;;3.08;100.00;95917.31;5047080;28;20609;-56
2023/01/17 05:46:37;;;;;;;0.98;0.98;;;;;;;3.37;100.00;95971.63;5046433;28;20142;-57
2023/01/17 05:49:04;;;;;;;0.77;0.77;;;;;;;3.35;100.00;95951.25;5046575;28;20045;-56
2023/01/17 05:51:30;;;;;;;2.67;2.00;;;;;;;3.25;100.00;95952.53;5046519;28;20131;-57
2023/01/17 05:53:57;;;;;;;1.17;1.08;;;;;;;2.95;100.00;95911.09;5046420;28;20049;-58
2023/01/17 05:56:24;;;;;;;0.70;0.70;;;;;;;3.47;100.00;95984.81;5052041;28;20049;-56
2023/01/17 05:58:50;;;;;;;0.47;0.47;;;;;;;3.07;100.00;95912.97;5046878;28;20140;-58
2023/01/17 06:01:18;;;;;;;0.98;0.98;;;;;;;3.13;100.00;95913.50;5046248;28;20084;-57
2023/01/17 06:03:45;;;;;;;0.65;0.65;;;;;;;3.52;100.00;95979.09;5055522;28;20065;-57
2023/01/17 06:06:12;;;;;;;2.83;2.67;;;;;;;3.61;100.00;95976.97;5046200;28;20080;-57
2023/01/17 06:08:38;;;;;;;0.45;0.45;;;;;;;3.67;100.00;95986.50;5046057;28;20513;-57
2023/01/17 06:11:05;;;;;;;2.08;1.95;;;;;;;3.52;100.00;95984.56;5046310;28;20146;-57
2023/01/17 06:13:31;;;;;;;2.22;1.45;;;;;;;3.52;100.00;95968.13;5046686;28;20080;-57
2023/01/17 06:16:01;;;;;;;1.13;1.13;;;;;;;3.13;100.00;95901.41;5046076;28;20061;-58
2023/01/17 06:18:29;;;;;;;0.50;0.50;;;;;;;3.22;100.00;95893.06;5060732;28;20056;-57
2023/01/17 06:20:56;;;;;;;21.33;1.48;;;;;;;3.78;100.00;95971.13;5045845;28;20508;-57
2023/01/17 06:23:23;;;;;;;1.67;1.00;;;;;;;3.61;100.00;95955.06;5044578;28;20527;-57
2023/01/17 06:25:50;;;;;;;1.20;0.85;;;;;;;3.70;100.00;95957.63;5053966;28;20137;-57
2023/01/17 06:28:20;;;;;;;1.50;1.40;;;;;;;3.86;100.00;95967.44;5065730;28;20052;-55
2023/01/17 06:30:47;;;;;;;0.70;0.70;;;;;;;3.95;100.00;95970.78;5065697;28;20048;-56
2023/01/17 06:33:14;;;;;;;1.05;1.05;;;;;;;4.03;100.00;95971.78;5060245;28;20049;-56
2023/01/17 06:35:51;;;;;;;0.50;0.50;;;;;;;3.67;100.00;95892.59;5045827;28;20045;-56
2023/01/17 06:38:18;;;;;;;1.38;1.33;;;;;;;3.80;100.00;95916.00;5045946;28;20123;-56
2023/01/17 06:40:45;;;;;;;6.13;4.53;;;;;;;4.24;100.00;95953.88;5045665;28;20431;-58
2023/01/17 06:43:12;;;;;;;1.40;0.88;;;;;;;3.81;100.00;95868.31;5045937;28;20084;-56
2023/01/17 06:45:39;;;;;;;1.00;1.00;;;;;;;4.69;100.00;95976.03;5045666;28;20107;-56
2023/01/17 06:48:06;;;;;;;0.60;0.60;;;;;;;4.94;100.00;95984.03;5046123;28;20574;-60
2023/01/17 06:50:32;;;;;;;0.60;0.60;;;;;;;5.12;100.00;95979.72;5046006;28;20056;-57
2023/01/17 06:53:05;;;;;;;0.50;0.50;;;;;;;5.28;100.00;95996.91;5045436;28;20492;-57
2023/01/17 06:55:33;;;;;;;1.75;1.65;;;;;;;4.79;100.00;95897.13;5045668;28;20048;-57
2023/01/17 06:58:01;;;;;;;1.45;1.33;;;;;;;5.56;100.00;96006.50;5045630;28;20507;-58
2023/01/17 07:00:29;;;;;;;1.27;1.23;;;;;;;5.61;99.42;96002.66;5045114;28;20053;-57
2023/01/17 07:02:56;;;;;;;2.22;2.15;;;;;;;5.64;100.00;95988.19;5045152;28;20071;-56
2023/01/17 07:05:23;;;;;;;9.80;4.13;;;;;;;5.47;100.00;95959.22;5045069;28;20049;-57
2023/01/17 07:07:50;;;;;;;1.02;1.02;;;;;;;5.22;100.00;95913.25;5051734;28;20170;-58
2023/01/17 07:10:17;;;;;;;11.48;6.25;;;;;;;5.47;100.00;95980.41;5054977;28;20045;-58
2023/01/17 07:12:43;;;;;;;5.97;4.43;;;;;;;5.35;100.00;95986.03;5063821;28;20049;-57
2023/01/17 07:15:10;;;;;;;1.33;1.23;;;;;;;5.52;100.00;95980.09;5064394;28;20084;-56
2023/01/17 07:17:37;;;;;;;4.20;2.20;;;;;;;5.57;100.00;95968.81;5058947;28;20109;-54
2023/01/17 07:20:05;;;;;;;0.70;0.70;;;;;;;5.46;100.00;95962.34;5063994;28;20048;-57
2023/01/17 07:22:32;;;;;;;7.03;2.65;;;;;;;5.52;100.00;95963.63;5056408;28;20076;-57
2023/01/17 07:24:59;;;;;;;0.73;0.73;;;;;;;5.67;100.00;95963.53;5050018;28;20044;-56
2023/01/17 07:27:29;;;;;;;0.73;0.73;;;;;;;5.78;100.00;95952.72;5060620;28;20080;-56
2023/01/17 07:29:57;;;;;;;1.45;1.35;;;;;;;5.54;100.00;95900.91;5045040;28;20048;-56
2023/01/17 07:32:27;;;;;;;1.60;1.50;;;;;;;5.48;100.00;95877.66;5049326;28;20123;-57
2023/01/17 07:34:57;;;;;;;1.42;1.40;;;;;;;6.46;100.00;95983.75;5064374;28;20127;-58
2023/01/17 07:37:25;;;;;;;0.60;0.60;;;;;;;6.76;100.00;95962.56;5063691;28;20095;-57
2023/01/17 07:39:52;;;;;;;2.47;2.38;;;;;;;7.04;100.00;95965.69;5057166;28;20534;-54
2023/01/17 07:42:20;;;;;;;2.33;1.95;;;;;;;7.15;99.32;95977.66;5049889;28;20076;-55
2023/01/17 07:44:49;;;;;;;3.65;3.35;;;;;;;7.12;98.02;95956.38;5071473;28;20059;-55
2023/01/17 07:47:16;;;;;;;0.70;0.70;;;;;;;6.95;97.97;95932.16;5045449;28;20080;-58
2023/01/17 07:49:42;;;;;;;1.15;1.15;;;;;;;7.19;98.11;95948.19;5060734;28;20058;-57
2023/01/17 07:52:09;;;;;;;0.60;0.60;;;;;;;7.43;97.63;95957.91;5063679;28;20040;-57
2023/01/17 07:54:36;;;;;;;0.70;0.70;;;;;;;7.54;96.36;95940.31;5064270;28;20048;-56
2023/01/17 07:57:02;;;;;;;1.27;1.27;;;;;;;7.76;94.74;95968.13;5063455;28;20048;-57
2023/01/17 07:59:29;;;;;;;0.70;0.70;;;;;;;7.74;95.06;95943.69;5064004;28;20369;-57
2023/01/17 08:01:56;;;;;;;2.80;2.60;;;;;;;7.69;94.01;95944.81;5052302;28;20080;-56
2023/01/17 08:04:26;;;;;;;0.68;0.68;;;;;;;7.69;93.37;95920.03;5049664;28;20060;-59
2023/01/17 08:06:53;;;;;;;0.60;0.60;;;;;;;8.23;92.54;95957.16;5043353;28;20076;-58
2023/01/17 08:09:20;;;;;;;1.33;1.33;;;;;;;8.16;92.08;95944.06;5053174;28;20045;-56
2023/01/17 08:11:47;;;;;;;0.63;0.63;;;;;;;8.55;92.21;95944.41;5061907;28;20067;-58
2023/01/17 08:14:14;;;;;;;0.70;0.70;;;;;;;8.88;91.40;95945.00;5058397;28;20114;-59
2023/01/17 08:16:40;;;;;;;0.80;0.80;;;;;;;9.45;90.50;95964.63;5062068;28;20052;-58
2023/01/17 08:19:07;;;;;;;0.80;0.80;;;;;;;9.36;86.74;95893.13;5042560;28;20064;-56
2023/01/17 08:21:34;;;;;;;0.70;0.70;;;;;;;9.34;86.74;95925.91;5048369;28;20479;-59
2023/01/17 08:24:00;;;;;;;0.73;0.73;;;;;;;9.95;87.06;95950.53;5038969;28;20361;-57
2023/01/17 08:26:27;;;;;;;6.10;4.15;;;;;;;9.75;83.46;95952.09;5048422;28;20576;-63
2023/01/17 08:29:01;;;;;;;0.80;0.80;;;;;;;9.89;84.78;95968.69;5058802;28;20053;-61
2023/01/17 08:31:34;;;;;;;0.93;0.93;;;;;;;9.92;83.34;95965.16;5062008;28;20519;-57
2023/01/17 08:34:00;;;;;;;0.98;0.98;;;;;;;9.96;83.72;95982.53;5061412;28;20049;-59
2023/01/17 08:36:29;;;;;;;3.80;3.47;;;;;;;9.96;83.78;95974.22;5062717;28;20519;-59
2023/01/17 08:38:57;;;;;;;1.60;1.60;;;;;;;9.88;84.24;95983.69;5060200;28;20080;-58
2023/01/17 08:41:26;;;;;;;1.02;1.02;;;;;;;9.50;85.42;95951.19;5041931;28;20397;-60
2023/01/17 08:43:53;;;;;;;7.85;3.97;;;;;;;9.47;87.00;95968.56;5046344;28;20063;-57
2023/01/17 08:46:20;;;;;;;0.90;0.90;;;;;;;8.90;90.76;95977.75;5042965;28;20134;-57
2023/01/17 08:48:46;;;;;;;0.60;0.60;;;;;;;8.88;92.68;95974.59;5054103;28;20067;-56
2023/01/17 08:51:13;;;;;;;2.35;2.25;;;;;;;8.98;91.86;95968.31;5055639;28;20114;-57
2023/01/17 08:53:40;;;;;;;1.40;1.40;;;;;;;8.74;90.89;95875.91;5057800;28;20060;-57
2023/01/17 08:56:08;;;;;;;8.65;3.70;;;;;;;9.63;88.17;95960.72;5063256;28;20122;-56
2023/01/17 08:58:34;;;;;;;0.73;0.73;;;;;;;9.30;88.30;95869.00;5058291;28;20126;-59
2023/01/17 09:01:03;;;;;;;11.38;2.35;;;;;;;10.07;85.77;95964.00;5047321;28;20053;-57
2023/01/17 09:03:31;;;;;;;0.80;0.80;;;;;;;9.83;84.74;95914.94;5061581;28;20056;-57
2023/01/17 09:06:06;;;;;;;1.00;1.00;;;;;;;10.61;82.99;95971.16;5048352;28;20134;-56
2023/01/17 09:08:33;;;;;;;0.90;0.90;;;;;;;10.70;82.27;95964.03;5056359;28;20486;-59
2023/01/17 09:11:08;;;;;;;0.80;0.80;;;;;;;10.96;82.13;95964.78;5055796;28;20467;-56
2023/01/17 09:13:35;;;;;;;0.95;0.95;;;;;;;11.17;81.12;95964.72;5054106;28;20052;-56
2023/01/17 09:16:03;;;;;;;4.97;2.55;;;;;;;10.27;83.48;95945.88;5047291;28;20087;-56
2023/01/17 09:18:31;;;;;;;0.80;0.80;;;;;;;10.57;83.07;95985.00;5050142;28;20045;-58
2023/01/17 09:20:58;;;;;;;1.02;1.02;;;;;;;10.88;82.06;95963.19;5061812;28;20064;-60
2023/01/17 09:23:26;;;;;;;1.25;1.25;;;;;;;10.06;82.87;95898.78;5063216;28;20272;-59
2023/01/17 09:25:58;;;;;;;8.38;7.03;;;;;;;10.23;82.56;95934.00;5058497;28;20215;-61
2023/01/17 09:28:26;;;;;;;7.55;3.25;;;;;;;10.38;82.79;95990.94;5053815;28;20115;-59
2023/01/17 09:30:53;;;;;;;0.90;0.90;;;;;;;10.43;83.25;95954.53;5047554;28;20049;-58
2023/01/17 09:33:21;;;;;;;0.80;0.80;;;;;;;10.05;83.82;95946.19;5061951;28;20114;-59
2023/01/17 09:35:48;;;;;;;0.90;0.90;;;;;;;10.11;85.14;95986.16;5066523;28;20055;-58
2023/01/17 09:38:15;;;;;;;0.82;0.82;;;;;;;10.04;85.05;95903.91;5053503;28;20745;-58
2023/01/17 09:40:46;;;;;;;0.80;0.80;;;;;;;10.83;83.88;95944.25;5046392;28;20332;-59
2023/01/17 09:43:48;;;;;;;0.90;0.90;;;;;;;11.04;82.01;95971.88;5057896;28;20075;-57
2023/01/17 09:46:29;;;;;;;2.58;2.38;;;;;;;10.21;84.94;95914.22;5057774;28;20055;-57
2023/01/17 09:49:07;;;;;;;2.22;1.80;;;;;;;10.94;83.81;95978.25;5066085;28;20501;-56
2023/01/17 09:51:35;;;;;;;12.60;6.00;;;;;;;10.91;83.07;95985.38;5065618;28;20503;-57
2023/01/17 09:54:02;;;;;;;9.90;4.13;;;;;;;10.13;86.86;95986.56;5060290;28;20139;-59
2023/01/17 09:56:40;;;;;;;5.80;3.50;;;;;;;10.01;89.20;95975.81;5049189;28;20060;-57
2023/01/17 09:59:30;;;;;;;2.72;1.92;;;;;;;10.11;89.13;95970.34;5055742;28;20052;-59
2023/01/17 10:02:39;;;;;;;1.17;1.17;;;;;;;7.98;87.70;95595.75;5047587;28;20603;-57
2023/01/17 10:05:24;;;;;;;1.70;1.60;;;;;;;9.83;90.90;95975.78;5045583;28;20056;-56
2023/01/17 10:08:10;;;;;;;2.40;2.25;;;;;;;10.18;89.92;95964.81;5054795;28;20079;-54
2023/01/17 10:10:49;;;;;;;1.25;1.17;;;;;;;10.58;87.96;95950.59;5059799;28;20959;-54
2023/01/17 10:13:45;;;;;;;1.90;1.80;;;;;;;10.95;86.08;95952.91;5054152;28;20080;-56
2023/01/17 10:16:27;;;;;;;1.73;1.63;;;;;;;11.31;84.93;95943.31;5053801;28;20048;-57
2023/01/17 10:19:17;;;;;;;0.90;0.90;;;;;;;11.34;84.52;95947.25;5058979;28;20053;-57
2023/01/17 10:21:57;;;;;;;4.38;2.20;;;;;;;11.28;82.69;95905.31;5045804;28;20148;-57
2023/01/17 10:25:11;;;;;;;1.83;1.73;;;;;;;11.83;80.96;95939.53;5060501;28;20087;-57
2023/01/17 10:27:57;;;;;;;1.45;1.35;;;;;;;11.84;80.70;95948.63;5054724;28;20041;-58
2023/01/17 10:30:37;;;;;;;7.18;1.90;;;;;;;11.79;80.75;95946.28;5065420;28;20507;-59
2023/01/17 10:33:27;;;;;;;0.80;0.80;;;;;;;11.99;81.14;95933.47;5065599;28;20056;-58
2023/01/17 10:36:14;;;;;;;1.38;1.38;;;;;;;11.78;80.07;95889.22;5064319;28;20056;-57
2023/01/17 10:38:46;;;;;;;2.60;2.38;;;;;;;12.19;79.24;95934.53;5058286;28;20111;-57
2023/01/17 10:41:28;;;;;;;0.90;0.90;;;;;;;12.41;78.74;95927.59;5048788;28;20059;-57
2023/01/17 10:44:38;;;;;;;1.10;1.10;;;;;;;12.30;78.78;95926.91;5065432;28;20063;-58
2023/01/17 10:47:10;;;;;;;1.00;1.00;;;;;;;12.41;78.95;95933.16;5057289;28;20060;-57
2023/01/17 10:49:58;;;;;;;1.00;1.00;;;;;;;12.52;78.61;95930.31;5065084;28;20080;-58
2023/01/17 10:52:42;;;;;;;0.98;0.98;;;;;;;12.73;78.83;95922.56;5064769;28;20071;-57
2023/01/17 10:55:11;;;;;;;;;;;;;;;12.42;78.09;95929.22;5065498;28;20055;-56
2023/01/17 10:57:41;;;;;;;1.15;1.15;;;;;;;12.46;78.87;95916.06;5064739;28;19924;-57
2023/01/17 11:00:42;;;;;;;1.00;1.00;;;;;;;12.48;78.71;95904.53;5064564;28;20071;-58
2023/01/17 11:03:15;;;;;;;0.82;0.82;;;;;;;12.69;78.85;95921.81;5061257;28;20137;-56
2023/01/17 11:05:43;;;;;;;0.90;0.90;;;;;;;12.87;78.03;95919.66;5063141;28;20448;-60
2023/01/17 11:08:13;;;;;;;1.10;1.10;;;;;;;12.92;76.30;95916.44;5064725;28;20057;-59
2023/01/17 11:10:47;;;;;;;1.40;1.40;;;;;;;12.65;77.03;95886.91;5062738;28;20078;-59
2023/01/17 11:13:17;;;;;;;1.02;1.02;;;;;;;12.99;77.36;95921.13;5059917;28;20500;-58
2023/01/17 11:15:52;;;;;;;0.90;0.90;;;;;;;13.10;77.23;95914.25;5044585;28;20496;-57
2023/01/17 11:18:20;;;;;;;1.17;1.17;;;;;;;13.11;75.64;95917.84;5056093;28;20063;-59
2023/01/17 11:20:48;;;;;;;1.05;1.05;;;;;;;12.91;75.60;95920.41;5065844;28;20131;-58
2023/01/17 11:23:32;;;;;;;1.00;1.00;;;;;;;13.02;75.74;95910.00;5063803;28;20052;-56
2023/01/17 11:26:06;;;;;;;1.00;1.00;;;;;;;13.22;76.21;95910.97;5063969;28;20072;-58
2023/01/17 11:28:35;;;;;;;1.00;1.00;;;;;;;13.31;75.36;95916.81;5050867;28;20359;-56
2023/01/17 11:31:07;;;;;;;2.35;1.63;;;;;;;13.19;75.10;95914.56;5044314;28;20049;-56
2023/01/17 11:33:43;;;;;;;1.02;1.02;;;;;;;13.02;75.86;95923.91;5058961;28;20107;-56
2023/01/17 11:36:28;;;;;;;1.00;1.00;;;;;;;12.91;76.24;95912.09;5050217;28;20435;-60
2023/01/17 11:39:04;;;;;;;1.08;1.08;;;;;;;12.73;76.80;95917.00;5061535;28;20056;-58
2023/01/17 11:41:41;;;;;;;1.00;1.00;;;;;;;12.59;77.57;95919.94;5062424;28;20052;-57
2023/01/17 11:44:29;;;;;;;1.30;1.30;;;;;;;12.44;77.71;95915.69;5063365;28;20079;-57
2023/01/17 11:47:10;;;;;;;1.00;1.00;;;;;;;12.42;77.72;95922.84;5063002;28;20163;-58
2023/01/17 11:49:39;;;;;;;1.10;1.10;;;;;;;12.30;78.57;95921.34;5063881;28;20518;-56
2023/01/17 11:52:15;;;;;;;1.23;1.23;;;;;;;12.25;79.13;95919.00;5054127;28;20048;-58
2023/01/17 11:54:45;;;;;;;1.00;1.00;;;;;;;12.09;79.62;95904.88;5044565;28;20053;-56
2023/01/17 11:57:41;;;;;;;1.00;1.00;;;;;;;12.12;79.93;95915.16;5047459;28;20067;-56
2023/01/17 12:00:26;;;;;;;0.80;0.80;;;;;;;12.10;79.93;95923.91;5059559;28;20514;-58
2023/01/17 12:03:17;;;;;;;0.90;0.90;;;;;;;12.08;80.28;95919.94;5057127;28;20507;-58
2023/01/17 12:06:06;;;;;;;1.10;1.10;;;;;;;12.21;79.16;95918.25;5063174;28;20596;-56
2023/01/17 12:09:07;;;;;;;1.33;1.33;;;;;;;12.27;79.44;95916.63;5060998;28;20075;-57
2023/01/17 12:13:59;;;;;;;0.95;0.95;;;;;;;12.23;79.07;95907.53;5043282;28;20424;-58
2023/01/17 12:15:06;;;;;;;1.00;1.00;;;;;;;12.12;80.19;95893.72;5042319;28;20491;-57
2023/01/17 12:17:47;;;;;;;0.95;0.95;;;;;;;12.22;80.42;95892.06;5054696;28;20564;-57
2023/01/17 12:20:33;;;;;;;0.98;0.98;;;;;;;12.25;80.73;95891.25;5042051;28;20126;-55
2023/01/17 12:23:24;;;;;;;0.98;0.98;;;;;;;12.35;80.07;95890.38;5052346;28;20052;-57
2023/01/17 12:26:08;;;;;;;0.90;0.90;;;;;;;12.42;80.05;95879.22;5061949;28;20052;-54
2023/01/17 12:29:01;;;;;;;0.90;0.90;;;;;;;12.54;79.47;95886.22;5061250;28;20102;-56
2023/01/17 12:31:32;;;;;;;0.90;0.90;;;;;;;12.56;78.84;95889.41;5063284;28;20053;-56
2023/01/17 12:34:45;;;;;;;1.10;1.10;;;;;;;12.70;77.85;95886.47;5067355;28;20052;-60
2023/01/17 12:37:21;;;;;;;0.90;0.90;;;;;;;12.53;78.55;95891.03;5046823;28;20056;-57
2023/01/17 12:39:56;;;;;;;1.85;1.75;;;;;;;12.05;78.85;95807.75;5049781;28;20514;-58
2023/01/17 12:42:29;;;;;;;1.00;1.00;;;;;;;12.61;78.68;95889.75;5054435;28;20125;-56
2023/01/17 12:45:05;;;;;;;0.90;0.90;;;;;;;12.47;78.69;95898.19;5070407;28;20770;-56
2023/01/17 12:47:36;;;;;;;0.90;0.90;;;;;;;12.41;79.34;95905.38;5055370;28;20048;-55
2023/01/17 12:50:25;;;;;;;0.90;0.90;;;;;;;12.30;80.16;95882.47;5050551;28;20119;-55
2023/01/17 12:53:08;;;;;;;0.95;0.95;;;;;;;12.25;81.02;95882.91;5058823;28;20057;-56
2023/01/17 12:55:53;;;;;;;0.90;0.90;;;;;;;11.86;81.38;95813.06;5076778;28;20499;-57
2023/01/17 12:58:23;;;;;;;1.00;1.00;;;;;;;12.33;81.70;95878.88;5063984;28;20055;-58
2023/01/17 13:01:00;;;;;;;0.90;0.90;;;;;;;12.15;81.47;95848.47;5048746;28;20504;-57
2023/01/17 13:04:04;;;;;;;2.75;2.55;;;;;;;12.30;81.06;95870.59;5049814;28;20096;-58
2023/01/17 13:06:57;;;;;;;1.10;1.10;;;;;;;12.59;80.63;95856.03;5049498;28;20147;-58
2023/01/17 13:09:27;;;;;;;0.90;0.90;;;;;;;12.15;80.04;95776.31;5049540;28;20126;-59
2023/01/17 13:12:04;;;;;;;1.00;1.00;;;;;;;12.80;80.14;95905.84;5050125;28;20045;-61
2023/01/17 13:14:31;;;;;;;0.90;0.90;;;;;;;12.81;79.91;95876.84;5068319;28;20056;-59
2023/01/17 13:17:01;;;;;;;0.90;0.90;;;;;;;12.44;79.94;95856.59;5069273;28;20051;-57
2023/01/17 13:19:40;;;;;;;0.90;0.90;;;;;;;12.34;81.91;95876.91;5069844;28;20044;-58
2023/01/17 13:22:16;;;;;;;3.13;2.92;;;;;;;12.19;82.66;95877.03;5066461;28;20122;-58